Time;durP1;ratioP1;P1;durP2;ratioP2;P2;SDS_P1;SDS_P2;PMS_P1;PMS_P2;Temp;Humidity;BMP_temperature;BMP_pressure;BME280_temperature;BME280_humidity;BME280_pressure;Samples;Min_cycle;Max_cycle;Signal;HPM_P1;HPM_P2
2024/02/19 00:02:24;;;;;;;13.68;2.25;;;;;;;;;;5098679;27;20048;-76
2024/02/19 00:04:51;;;;;;;17.83;3.22;;;;;;;;;;5069528;28;20493;-76
2024/02/19 00:07:17;;;;;;;20.17;2.80;;;;;;;;;;5064650;28;20041;-75
2024/02/19 00:09:44;;;;;;;19.38;3.10;;;;;;;;;;5056545;28;20080;-76
2024/02/19 00:12:12;;;;;;;21.05;3.05;;;;;;;;;;5065269;28;20066;-76
2024/02/19 00:14:39;;;;;;;18.07;3.47;;;;;;;;;;5068587;28;20068;-76
2024/02/19 00:17:05;;;;;;;22.70;2.90;;;;;;;;;;5078976;28;20071;-75
2024/02/19 00:19:32;;;;;;;20.83;3.70;;;;;;;;;;5059532;28;20105;-76
2024/02/19 00:21:58;;;;;;;19.02;3.45;;;;;;;;;;5084722;28;20055;-76
2024/02/19 00:24:25;;;;;;;24.08;2.65;;;;;;;;;;5080200;28;20057;-76
2024/02/19 00:26:51;;;;;;;25.58;2.78;;;;;;;;;;5063573;28;20159;-75
2024/02/19 00:29:18;;;;;;;25.55;3.38;;;;;;;;;;5094819;28;20754;-76
2024/02/19 00:31:44;;;;;;;16.50;2.67;;;;;;;;;;5050713;28;20052;-75
2024/02/19 00:34:11;;;;;;;23.50;3.83;;;;;;;;;;5079583;28;20515;-74
2024/02/19 00:36:37;;;;;;;23.38;3.45;;;;;;;;;;5059127;28;20053;-77
2024/02/19 00:39:04;;;;;;;21.95;3.30;;;;;;;;;;5071499;28;20094;-79
2024/02/19 00:41:31;;;;;;;23.30;3.13;;;;;;;;;;5058392;28;20059;-80
2024/02/19 00:43:57;;;;;;;23.10;3.30;;;;;;;;;;5066878;28;20055;-80
2024/02/19 00:46:24;;;;;;;19.73;3.13;;;;;;;;;;5082879;28;20044;-81
2024/02/19 00:48:50;;;;;;;16.95;3.15;;;;;;;;;;5083593;28;20055;-80
2024/02/19 00:51:16;;;;;;;16.88;2.83;;;;;;;;;;5052796;28;20103;-78
2024/02/19 00:53:43;;;;;;;21.67;3.22;;;;;;;;;;5062952;28;20488;-78
2024/02/19 00:56:09;;;;;;;25.90;3.15;;;;;;;;;;5070951;28;20131;-78
2024/02/19 00:58:35;;;;;;;27.23;2.70;;;;;;;;;;5085191;28;20134;-77
2024/02/19 01:01:02;;;;;;;20.05;2.80;;;;;;;;;;5075500;28;20151;-77
2024/02/19 01:03:29;;;;;;;20.08;2.60;;;;;;;;;;5089839;28;20094;-79
2024/02/19 01:05:55;;;;;;;25.50;3.20;;;;;;;;;;5063105;28;20767;-79
2024/02/19 01:08:21;;;;;;;16.58;3.33;;;;;;;;;;5068736;28;20481;-79
2024/02/19 01:10:49;;;;;;;21.45;2.92;;;;;;;;;;5078645;28;20084;-78
2024/02/19 01:13:16;;;;;;;20.67;2.80;;;;;;;;;;5054614;28;20048;-78
2024/02/19 01:15:42;;;;;;;22.75;2.95;;;;;;;;;;5051384;28;20101;-79
2024/02/19 01:18:09;;;;;;;22.40;3.50;;;;;;;;;;5070213;28;20047;-77
2024/02/19 01:20:36;;;;;;;15.15;2.22;;;;;;;;;;5068960;28;20117;-78
2024/02/19 01:23:02;;;;;;;18.27;2.97;;;;;;;;;;5088628;28;20407;-80
2024/02/19 01:25:29;;;;;;;25.85;2.92;;;;;;;;;;5079023;28;20575;-79
2024/02/19 01:27:55;;;;;;;17.65;3.30;;;;;;;;;;5067468;28;20049;-79
2024/02/19 01:30:22;;;;;;;15.32;3.17;;;;;;;;;;5085288;28;20059;-79
2024/02/19 01:32:48;;;;;;;17.38;3.08;;;;;;;;;;5074382;28;20048;-80
2024/02/19 01:35:15;;;;;;;24.08;3.22;;;;;;;;;;5085929;28;20080;-77
2024/02/19 01:37:41;;;;;;;28.55;3.47;;;;;;;;;;5066569;28;20148;-78
2024/02/19 01:40:09;;;;;;;19.08;3.08;;;;;;;;;;5072646;28;20114;-77
2024/02/19 01:42:36;;;;;;;;;;;;;;;;;;5058299;28;20127;-78
2024/02/19 01:45:07;;;;;;;21.67;3.25;;;;;;;;;;5076278;28;20583;-77
2024/02/19 01:47:34;;;;;;;24.52;3.17;;;;;;;;;;5065688;28;20041;-77
2024/02/19 01:50:00;;;;;;;30.45;3.80;;;;;;;;;;5074103;28;20050;-77
2024/02/19 01:52:27;;;;;;;22.80;4.25;;;;;;;;;;5085127;28;20036;-78
2024/02/19 01:54:53;;;;;;;18.35;3.00;;;;;;;;;;5069019;28;21044;-77
2024/02/19 01:57:20;;;;;;;26.73;4.70;;;;;;;;;;5069079;28;20057;-79
2024/02/19 01:59:47;;;;;;;19.60;3.10;;;;;;;;;;5069274;28;20109;-81
2024/02/19 02:02:15;;;;;;;19.30;3.63;;;;;;;;;;5111425;27;20060;-81
2024/02/19 02:04:41;;;;;;;24.75;3.40;;;;;;;;;;5070718;28;20640;-80
2024/02/19 02:07:08;;;;;;;23.52;3.47;;;;;;;;;;5081734;28;20058;-80
2024/02/19 02:09:34;;;;;;;24.75;3.20;;;;;;;;;;5067553;28;20055;-78
2024/02/19 02:12:01;;;;;;;21.35;3.10;;;;;;;;;;5062227;28;20048;-80
2024/02/19 02:14:27;;;;;;;26.95;3.72;;;;;;;;;;5082237;28;20578;-79
2024/02/19 02:16:53;;;;;;;18.63;3.13;;;;;;;;;;5083793;28;20075;-81
2024/02/19 02:19:20;;;;;;;24.20;3.38;;;;;;;;;;5081642;28;20116;-80
2024/02/19 02:21:47;;;;;;;22.17;2.70;;;;;;;;;;5084256;28;20072;-80
2024/02/19 02:24:13;;;;;;;24.13;3.85;;;;;;;;;;5062889;28;20044;-81
2024/02/19 02:26:40;;;;;;;20.30;2.97;;;;;;;;;;5074973;28;20684;-80
2024/02/19 02:29:06;;;;;;;23.13;3.03;;;;;;;;;;5077303;28;20040;-79
2024/02/19 02:31:33;;;;;;;23.35;3.50;;;;;;;;;;5074734;28;20048;-81
2024/02/19 02:34:00;;;;;;;30.35;3.35;;;;;;;;;;5079969;28;20072;-80
2024/02/19 02:36:26;;;;;;;22.40;3.72;;;;;;;;;;5069594;28;20129;-81
2024/02/19 02:38:53;;;;;;;20.95;3.47;;;;;;;;;;5066398;28;20044;-80
2024/02/19 02:41:20;;;;;;;25.77;4.05;;;;;;;;;;5061799;28;20052;-82
2024/02/19 02:43:47;;;;;;;28.33;3.10;;;;;;;;;;5076615;28;20056;-78
2024/02/19 02:46:13;;;;;;;23.65;3.30;;;;;;;;;;5110008;27;20134;-82
2024/02/19 02:48:40;;;;;;;18.45;3.05;;;;;;;;;;5073552;28;20059;-81
2024/02/19 02:51:06;;;;;;;22.13;2.85;;;;;;;;;;5067500;28;20028;-83
2024/02/19 02:53:33;;;;;;;20.10;2.38;;;;;;;;;;5081317;28;20108;-79
2024/02/19 02:56:06;;;;;;;21.90;3.17;;;;;;;;;;5052890;28;20451;-80
2024/02/19 02:58:33;;;;;;;19.35;3.17;;;;;;;;;;5078843;28;20055;-83
2024/02/19 03:01:00;;;;;;;24.08;4.30;;;;;;;;;;5084819;28;20036;-80
2024/02/19 03:03:32;;;;;;;18.13;2.60;;;;;;;;;;5098042;28;20059;-79
2024/02/19 03:05:59;;;;;;;19.80;2.60;;;;;;;;;;5059500;28;20166;-79
2024/02/19 03:08:26;;;;;;;17.50;2.55;;;;;;;;;;5080674;28;20487;-80
2024/02/19 03:10:52;;;;;;;18.45;2.70;;;;;;;;;;5086265;28;20108;-79
2024/02/19 03:13:19;;;;;;;26.35;3.15;;;;;;;;;;5066929;28;20114;-80
2024/02/19 03:15:45;;;;;;;25.70;3.38;;;;;;;;;;5081736;28;20060;-79
2024/02/19 03:18:12;;;;;;;26.17;3.67;;;;;;;;;;5070191;28;20137;-82
2024/02/19 03:20:39;;;;;;;24.73;3.35;;;;;;;;;;5081924;28;20075;-81
2024/02/19 03:23:06;;;;;;;25.52;3.13;;;;;;;;;;5056168;28;20425;-78
2024/02/19 03:25:32;;;;;;;20.90;3.13;;;;;;;;;;5088510;28;20098;-80
2024/02/19 03:27:59;;;;;;;17.92;3.20;;;;;;;;;;5074149;28;20048;-80
2024/02/19 03:30:29;;;;;;;23.15;2.97;;;;;;;;;;5081043;28;20052;-78
2024/02/19 03:32:56;;;;;;;26.02;2.92;;;;;;;;;;5086872;28;20071;-80
2024/02/19 03:35:22;;;;;;;30.15;2.85;;;;;;;;;;5087997;28;20048;-80
2024/02/19 03:37:50;;;;;;;23.17;3.13;;;;;;;;;;5083347;28;20048;-80
2024/02/19 03:40:17;;;;;;;18.30;2.38;;;;;;;;;;5079799;28;20044;-83
2024/02/19 03:42:44;;;;;;;19.70;3.30;;;;;;;;;;5085722;28;20048;-80
2024/02/19 03:45:11;;;;;;;23.65;3.47;;;;;;;;;;5067346;28;20147;-79
2024/02/19 03:47:37;;;;;;;23.65;3.70;;;;;;;;;;5063618;28;20793;-78
2024/02/19 03:50:04;;;;;;;26.50;3.35;;;;;;;;;;5066982;28;20048;-81
2024/02/19 03:52:30;;;;;;;15.82;2.95;;;;;;;;;;5063247;28;20691;-81
2024/02/19 03:54:57;;;;;;;21.23;3.25;;;;;;;;;;5066400;28;20049;-81
2024/02/19 03:57:23;;;;;;;28.33;3.53;;;;;;;;;;5077000;28;20090;-80
2024/02/19 03:59:49;;;;;;;24.73;3.92;;;;;;;;;;5080316;28;20048;-82
2024/02/19 04:02:16;;;;;;;23.30;4.07;;;;;;;;;;5085797;28;20174;-81
2024/02/19 04:04:42;;;;;;;21.88;3.60;;;;;;;;;;5067229;28;20424;-81
2024/02/19 04:07:09;;;;;;;22.45;3.45;;;;;;;;;;5083592;28;20416;-74
2024/02/19 04:09:35;;;;;;;22.60;3.10;;;;;;;;;;5070793;28;20048;-77
2024/02/19 04:12:05;;;;;;;27.20;3.63;;;;;;;;;;5092418;28;20141;-75
2024/02/19 04:14:32;;;;;;;21.95;3.60;;;;;;;;;;5074060;28;20059;-74
2024/02/19 04:16:59;;;;;;;17.23;2.92;;;;;;;;;;5069249;28;20048;-74
2024/02/19 04:19:27;;;;;;;18.92;3.00;;;;;;;;;;5078061;28;20080;-75
2024/02/19 04:21:54;;;;;;;30.77;4.13;;;;;;;;;;5061190;28;20048;-74
2024/02/19 04:24:20;;;;;;;21.83;3.35;;;;;;;;;;5067836;28;20044;-74
2024/02/19 04:26:46;;;;;;;21.02;3.10;;;;;;;;;;5059510;28;20052;-75
2024/02/19 04:29:13;;;;;;;32.33;4.10;;;;;;;;;;5074905;28;20119;-74
2024/02/19 04:31:43;;;;;;;24.77;3.92;;;;;;;;;;5058077;28;20055;-75
2024/02/19 04:34:09;;;;;;;19.77;4.07;;;;;;;;;;5040847;28;20040;-72
2024/02/19 04:36:36;;;;;;;25.90;4.45;;;;;;;;;;5063142;28;20048;-74
2024/02/19 04:39:02;;;;;;;21.48;3.47;;;;;;;;;;5065348;28;20113;-74
2024/02/19 04:41:28;;;;;;;20.02;4.15;;;;;;;;;;5069506;28;20048;-73
2024/02/19 04:43:55;;;;;;;17.40;3.47;;;;;;;;;;5068653;28;20836;-74
2024/02/19 04:46:21;;;;;;;14.35;3.35;;;;;;;;;;5087773;28;20063;-76
2024/02/19 04:48:48;;;;;;;18.08;3.80;;;;;;;;;;5053763;28;20552;-74
2024/02/19 04:51:14;;;;;;;20.45;3.85;;;;;;;;;;5061981;28;20070;-75
2024/02/19 04:53:41;;;;;;;22.38;4.28;;;;;;;;;;5062397;28;20044;-74
2024/02/19 04:56:07;;;;;;;19.33;3.40;;;;;;;;;;5063346;28;20106;-76
2024/02/19 04:58:33;;;;;;;20.30;3.90;;;;;;;;;;5071741;28;20044;-74
2024/02/19 05:01:00;;;;;;;25.13;4.35;;;;;;;;;;5075523;28;20056;-74
2024/02/19 05:03:26;;;;;;;22.27;3.70;;;;;;;;;;5071206;28;20059;-75
2024/02/19 05:05:53;;;;;;;25.05;3.80;;;;;;;;;;5069853;28;20047;-75
2024/02/19 05:08:20;;;;;;;28.80;3.53;;;;;;;;;;5062348;28;20048;-75
2024/02/19 05:10:47;;;;;;;21.02;3.47;;;;;;;;;;5044574;28;20709;-75
2024/02/19 05:13:13;;;;;;;28.52;4.18;;;;;;;;;;5068279;28;20472;-74
2024/02/19 05:15:40;;;;;;;22.65;4.40;;;;;;;;;;5081660;28;20044;-74
2024/02/19 05:18:06;;;;;;;26.33;3.78;;;;;;;;;;5070237;28;20055;-81
2024/02/19 05:20:35;;;;;;;15.98;3.63;;;;;;;;;;5071821;28;20040;-82
2024/02/19 05:23:02;;;;;;;25.08;4.22;;;;;;;;;;5067367;28;20074;-81
2024/02/19 05:25:28;;;;;;;24.10;3.28;;;;;;;;;;5084723;28;20090;-81
2024/02/19 05:27:57;;;;;;;17.40;2.83;;;;;;;;;;5066882;28;20049;-78
2024/02/19 05:30:24;;;;;;;24.33;3.80;;;;;;;;;;5081787;28;20043;-83
2024/02/19 05:32:51;;;;;;;24.63;3.85;;;;;;;;;;5058341;28;20045;-83
2024/02/19 05:35:17;;;;;;;27.73;4.63;;;;;;;;;;5062607;28;20055;-80
2024/02/19 05:37:44;;;;;;;23.08;3.30;;;;;;;;;;5094253;28;20380;-77
2024/02/19 05:40:10;;;;;;;18.23;3.38;;;;;;;;;;5062637;28;20044;-81
2024/02/19 05:42:37;;;;;;;23.50;4.60;;;;;;;;;;5068278;28;20050;-76
2024/02/19 05:45:04;;;;;;;19.42;4.35;;;;;;;;;;5071176;28;20052;-80
2024/02/19 05:47:30;;;;;;;20.38;4.05;;;;;;;;;;5061435;28;20816;-80
2024/02/19 05:49:57;;;;;;;21.15;3.60;;;;;;;;;;5076249;28;20599;-79
2024/02/19 05:52:23;;;;;;;20.83;3.28;;;;;;;;;;5068688;28;20044;-83
2024/02/19 05:54:50;;;;;;;21.15;3.10;;;;;;;;;;5088337;28;20067;-77
2024/02/19 05:57:17;;;;;;;21.80;3.50;;;;;;;;;;5076214;28;20051;-82
2024/02/19 05:59:43;;;;;;;28.35;4.68;;;;;;;;;;5083310;28;20404;-83
2024/02/19 06:02:09;;;;;;;20.85;4.35;;;;;;;;;;5081307;28;20101;-83
2024/02/19 06:04:36;;;;;;;17.15;3.33;;;;;;;;;;5057186;28;20044;-83
2024/02/19 06:07:03;;;;;;;24.30;3.70;;;;;;;;;;5080983;28;20052;-81
2024/02/19 06:09:29;;;;;;;15.77;3.63;;;;;;;;;;5058395;28;20044;-83
2024/02/19 06:11:56;;;;;;;17.50;4.25;;;;;;;;;;5074779;28;20056;-82
2024/02/19 06:14:22;;;;;;;22.85;5.32;;;;;;;;;;5071178;28;20048;-81
2024/02/19 06:16:48;;;;;;;21.73;4.65;;;;;;;;;;5057290;28;20048;-82
2024/02/19 06:19:16;;;;;;;21.50;4.65;;;;;;;;;;5078067;28;20076;-82
2024/02/19 06:21:43;;;;;;;19.58;5.65;;;;;;;;;;5076931;28;20051;-83
2024/02/19 06:24:10;;;;;;;25.25;5.88;;;;;;;;;;5065418;28;20063;-82
2024/02/19 06:26:36;;;;;;;21.38;5.20;;;;;;;;;;5060613;28;20075;-83
2024/02/19 06:29:03;;;;;;;23.30;5.53;;;;;;;;;;5069434;28;20124;-83
2024/02/19 06:31:29;;;;;;;21.27;5.15;;;;;;;;;;5076970;28;20055;-81
2024/02/19 06:33:56;;;;;;;20.27;5.63;;;;;;;;;;5055192;28;20504;-83
2024/02/19 06:36:23;;;;;;;21.58;5.40;;;;;;;;;;5072573;28;20052;-82
2024/02/19 06:38:50;;;;;;;21.67;5.95;;;;;;;;;;5074903;28;20040;-83
2024/02/19 06:41:16;;;;;;;21.60;5.35;;;;;;;;;;5074318;28;20052;-82
2024/02/19 06:43:42;;;;;;;20.85;5.47;;;;;;;;;;5092677;28;20381;-79
2024/02/19 06:46:11;;;;;;;24.20;5.20;;;;;;;;;;5069005;28;20056;-81
2024/02/19 06:48:39;;;;;;;21.55;5.00;;;;;;;;;;5070864;28;21201;-80
2024/02/19 06:51:06;;;;;;;17.90;4.70;;;;;;;;;;5081952;28;20140;-79
2024/02/19 06:53:33;;;;;;;22.63;6.18;;;;;;;;;;5084115;28;20551;-83
2024/02/19 06:56:00;;;;;;;19.30;4.82;;;;;;;;;;5070739;28;20581;-83
2024/02/19 06:58:26;;;;;;;19.88;4.93;;;;;;;;;;5089298;28;20048;-81
2024/02/19 07:00:53;;;;;;;20.85;4.25;;;;;;;;;;5088560;28;20083;-82
2024/02/19 07:03:19;;;;;;;22.58;4.93;;;;;;;;;;5078304;28;20060;-82
2024/02/19 07:05:46;;;;;;;19.70;4.20;;;;;;;;;;5086495;28;20114;-83
2024/02/19 07:08:14;;;;;;;21.90;3.92;;;;;;;;;;5080572;28;20120;-79
2024/02/19 07:10:40;;;;;;;20.88;4.60;;;;;;;;;;5084130;28;20056;-84
2024/02/19 07:13:07;;;;;;;21.45;4.50;;;;;;;;;;5069623;28;21032;-83
2024/02/19 07:15:34;;;;;;;19.08;3.55;;;;;;;;;;5071408;28;20052;-83
2024/02/19 07:18:00;;;;;;;18.13;3.47;;;;;;;;;;5081374;28;20052;-83
2024/02/19 07:20:27;;;;;;;22.83;3.60;;;;;;;;;;5073647;28;20053;-83
2024/02/19 07:22:53;;;;;;;19.88;3.67;;;;;;;;;;5081363;28;20052;-83
2024/02/19 07:25:19;;;;;;;20.02;3.50;;;;;;;;;;5077907;28;20106;-83
2024/02/19 07:27:47;;;;;;;18.17;3.13;;;;;;;;;;5072109;28;20060;-83
2024/02/19 07:30:14;;;;;;;17.85;3.55;;;;;;;;;;5078070;28;20297;-83
2024/02/19 07:32:40;;;;;;;20.73;3.88;;;;;;;;;;5088459;28;20143;-83
2024/02/19 07:35:07;;;;;;;17.80;3.80;;;;;;;;;;5085930;28;20076;-83
2024/02/19 07:37:34;;;;;;;15.02;3.53;;;;;;;;;;5068910;28;20049;-83
2024/02/19 07:40:02;;;;;;;13.85;3.42;;;;;;;;;;5086689;28;20046;-82
2024/02/19 07:42:28;;;;;;;15.35;3.88;;;;;;;;;;5058544;28;20492;-78
2024/02/19 07:44:55;;;;;;;21.48;3.53;;;;;;;;;;5074313;28;20071;-83
2024/02/19 07:47:21;;;;;;;16.98;2.83;;;;;;;;;;5095199;28;20089;-82
2024/02/19 07:49:48;;;;;;;14.77;3.60;;;;;;;;;;5066131;28;20043;-78
2024/02/19 07:52:14;;;;;;;18.52;3.67;;;;;;;;;;5084922;28;20063;-83
2024/02/19 07:54:41;;;;;;;11.20;3.30;;;;;;;;;;5077683;28;20052;-83
2024/02/19 07:57:07;;;;;;;20.80;4.05;;;;;;;;;;5082974;28;20048;-82
2024/02/19 07:59:34;;;;;;;20.48;3.85;;;;;;;;;;5076039;28;20162;-84
2024/02/19 08:02:00;;;;;;;20.88;4.78;;;;;;;;;;5072690;28;20052;-84
2024/02/19 08:04:27;;;;;;;16.27;3.25;;;;;;;;;;5081522;28;20761;-83
2024/02/19 08:06:54;;;;;;;18.73;3.90;;;;;;;;;;5063406;28;20050;-84
2024/02/19 08:09:25;;;;;;;15.75;3.60;;;;;;;;;;5056868;28;20508;-84
2024/02/19 08:11:52;;;;;;;19.50;3.95;;;;;;;;;;5047776;28;20041;-83
2024/02/19 08:14:19;;;;;;;15.43;4.07;;;;;;;;;;5071298;28;20044;-84
2024/02/19 08:16:49;;;;;;;16.48;3.72;;;;;;;;;;5060865;28;20072;-84
2024/02/19 08:19:16;;;;;;;18.90;5.55;;;;;;;;;;5060466;28;20051;-82
2024/02/19 08:21:43;;;;;;;14.50;3.75;;;;;;;;;;5073660;28;20045;-81
2024/02/19 08:24:10;;;;;;;18.95;3.90;;;;;;;;;;5074791;28;20432;-84
2024/02/19 08:26:36;;;;;;;14.50;4.00;;;;;;;;;;5100092;28;20051;-83
2024/02/19 08:29:04;;;;;;;17.08;3.65;;;;;;;;;;5075766;28;20514;-83
2024/02/19 08:31:30;;;;;;;18.93;4.53;;;;;;;;;;5071210;28;20052;-83
2024/02/19 08:33:57;;;;;;;20.00;4.38;;;;;;;;;;5077964;28;20300;-84
2024/02/19 08:36:23;;;;;;;19.25;4.18;;;;;;;;;;5071322;28;20487;-84
2024/02/19 08:38:52;;;;;;;15.88;3.70;;;;;;;;;;5083604;28;20056;-84
2024/02/19 08:41:19;;;;;;;17.38;4.78;;;;;;;;;;5076234;28;20048;-83
2024/02/19 08:43:46;;;;;;;17.30;4.00;;;;;;;;;;5072073;28;20074;-83
2024/02/19 08:46:13;;;;;;;11.95;4.03;;;;;;;;;;5070296;28;20055;-77
2024/02/19 08:48:39;;;;;;;19.42;3.78;;;;;;;;;;5101238;27;20043;-76
2024/02/19 08:51:06;;;;;;;17.70;3.97;;;;;;;;;;5076652;28;20041;-75
2024/02/19 08:53:33;;;;;;;16.50;4.25;;;;;;;;;;5066346;28;20599;-76
2024/02/19 08:56:00;;;;;;;19.25;4.13;;;;;;;;;;5087457;28;20102;-76
2024/02/19 08:58:28;;;;;;;15.25;4.18;;;;;;;;;;5074840;28;20071;-77
2024/02/19 09:00:57;;;;;;;13.63;4.28;;;;;;;;;;5061492;28;20060;-77
2024/02/19 09:03:24;;;;;;;23.85;5.32;;;;;;;;;;5075410;28;20508;-76
2024/02/19 09:05:50;;;;;;;15.98;4.30;;;;;;;;;;5060806;28;20519;-76
2024/02/19 09:08:18;;;;;;;17.30;4.10;;;;;;;;;;5076896;28;20044;-76
2024/02/19 09:10:44;;;;;;;20.27;5.05;;;;;;;;;;5069345;28;20048;-76
2024/02/19 09:13:11;;;;;;;14.63;4.38;;;;;;;;;;5067861;28;20044;-76
2024/02/19 09:15:37;;;;;;;17.25;4.57;;;;;;;;;;5057430;28;20107;-74
2024/02/19 09:18:04;;;;;;;14.98;4.10;;;;;;;;;;5069231;28;20040;-77
2024/02/19 09:20:30;;;;;;;21.02;5.47;;;;;;;;;;5071728;28;20452;-77
2024/02/19 09:22:57;;;;;;;15.38;4.55;;;;;;;;;;5074001;28;20094;-75
2024/02/19 09:25:25;;;;;;;19.23;4.47;;;;;;;;;;5081457;28;20664;-77
2024/02/19 09:27:52;;;;;;;19.25;4.80;;;;;;;;;;5077925;28;20044;-77
2024/02/19 09:30:19;;;;;;;18.90;4.50;;;;;;;;;;5075433;28;20666;-76
2024/02/19 09:32:45;;;;;;;13.57;4.30;;;;;;;;;;5085894;28;20130;-76
2024/02/19 09:35:12;;;;;;;20.52;5.03;;;;;;;;;;5061909;28;20056;-76
2024/02/19 09:37:39;;;;;;;14.43;4.55;;;;;;;;;;5080663;28;20051;-76
2024/02/19 09:40:06;;;;;;;17.65;4.63;;;;;;;;;;5055390;28;20056;-75
2024/02/19 09:42:34;;;;;;;17.77;4.00;;;;;;;;;;5074930;28;20431;-76
2024/02/19 09:45:01;;;;;;;12.35;4.05;;;;;;;;;;5074173;28;20075;-74
2024/02/19 09:47:28;;;;;;;17.00;4.53;;;;;;;;;;5073379;28;20498;-78
2024/02/19 09:49:55;;;;;;;12.70;4.30;;;;;;;;;;5071147;28;20044;-74
2024/02/19 09:52:22;;;;;;;14.77;4.68;;;;;;;;;;5081059;28;20079;-76
2024/02/19 09:54:54;;;;;;;10.88;3.78;;;;;;;;;;5076179;28;20040;-75
2024/02/19 09:57:21;;;;;;;17.95;4.10;;;;;;;;;;5055897;28;20047;-78
2024/02/19 09:59:48;;;;;;;16.40;4.95;;;;;;;;;;5080872;28;20052;-87
2024/02/19 10:02:21;;;;;;;17.63;5.38;;;;;;;;;;5085808;28;20136;-83
2024/02/19 10:04:47;;;;;;;16.17;6.10;;;;;;;;;;5043785;28;20122;-83
2024/02/19 10:07:15;;;;;;;12.88;5.30;;;;;;;;;;5085061;28;20047;-81
2024/02/19 10:09:42;;;;;;;16.90;5.65;;;;;;;;;;5085871;28;20601;-81
2024/02/19 10:12:09;;;;;;;13.52;5.05;;;;;;;;;;5085051;28;20043;-83
2024/02/19 10:14:35;;;;;;;15.75;5.43;;;;;;;;;;5080452;28;20094;-80
2024/02/19 10:17:02;;;;;;;17.23;5.88;;;;;;;;;;5066261;28;20049;-84
2024/02/19 10:19:28;;;;;;;17.08;5.80;;;;;;;;;;5091294;28;20087;-83
2024/02/19 10:21:56;;;;;;;17.17;5.47;;;;;;;;;;5080280;28;20086;-82
2024/02/19 10:24:23;;;;;;;17.85;5.93;;;;;;;;;;5093513;28;20114;-83
2024/02/19 10:26:50;;;;;;;16.58;5.90;;;;;;;;;;5078253;28;20524;-82
2024/02/19 10:29:18;;;;;;;16.65;5.95;;;;;;;;;;5103818;27;20048;-83
2024/02/19 10:31:44;;;;;;;17.87;6.17;;;;;;;;;;5078548;28;20097;-83
2024/02/19 10:34:13;;;;;;;19.33;6.90;;;;;;;;;;5091248;28;20073;-84
2024/02/19 10:36:40;;;;;;;17.73;6.43;;;;;;;;;;5054611;28;20065;-84
2024/02/19 10:39:06;;;;;;;17.88;6.43;;;;;;;;;;5078304;28;20051;-83
2024/02/19 10:41:38;;;;;;;19.90;7.05;;;;;;;;;;5062287;28;20063;-84
2024/02/19 10:44:05;;;;;;;18.58;6.85;;;;;;;;;;5090543;28;20106;-82
2024/02/19 10:46:32;;;;;;;17.67;6.85;;;;;;;;;;5066510;28;20086;-85
2024/02/19 10:48:59;;;;;;;15.52;6.40;;;;;;;;;;5086525;28;20040;-81
2024/02/19 10:51:25;;;;;;;19.13;6.80;;;;;;;;;;5062408;28;20047;-82
2024/02/19 10:53:59;;;;;;;21.27;7.13;;;;;;;;;;5083552;28;20046;-84
2024/02/19 10:56:32;;;;;;;15.18;6.68;;;;;;;;;;5076125;28;20048;-82
2024/02/19 10:59:01;;;;;;;16.45;6.63;;;;;;;;;;5085248;28;20071;-81
2024/02/19 11:01:36;;;;;;;16.55;6.80;;;;;;;;;;5084127;28;20063;-82
2024/02/19 11:04:15;;;;;;;14.50;6.72;;;;;;;;;;5077328;28;20059;-84
2024/02/19 11:06:52;;;;;;;16.13;6.13;;;;;;;;;;5092625;28;20052;-79
2024/02/19 11:09:23;;;;;;;23.77;7.72;;;;;;;;;;5073362;28;20048;-82
2024/02/19 11:11:57;;;;;;;20.15;6.32;;;;;;;;;;5086307;28;21727;-82
2024/02/19 11:14:24;;;;;;;15.70;6.28;;;;;;;;;;5095323;27;20045;-78
2024/02/19 11:16:53;;;;;;;18.88;6.70;;;;;;;;;;5087385;28;20385;-84
2024/02/19 11:19:20;;;;;;;16.42;6.35;;;;;;;;;;5091055;28;20048;-82
2024/02/19 11:21:47;;;;;;;19.50;6.43;;;;;;;;;;5060808;28;20098;-84
2024/02/19 11:24:13;;;;;;;18.17;7.15;;;;;;;;;;5091679;27;20055;-85
2024/02/19 11:26:40;;;;;;;15.55;6.78;;;;;;;;;;5052186;28;20048;-81
2024/02/19 11:29:13;;;;;;;19.17;6.50;;;;;;;;;;5061266;28;20052;-83
2024/02/19 11:31:40;;;;;;;18.73;6.85;;;;;;;;;;5072916;28;20418;-79
2024/02/19 11:34:12;;;;;;;18.77;6.82;;;;;;;;;;5078330;28;20044;-84
2024/02/19 11:36:40;;;;;;;17.60;7.63;;;;;;;;;;5075308;28;20622;-82
2024/02/19 11:39:07;;;;;;;17.42;6.25;;;;;;;;;;5079467;28;20786;-81
2024/02/19 11:41:34;;;;;;;22.30;6.57;;;;;;;;;;5083591;28;20139;-84
2024/02/19 11:44:00;;;;;;;17.80;6.85;;;;;;;;;;5081533;28;20113;-83
2024/02/19 11:46:28;;;;;;;17.98;5.80;;;;;;;;;;5090681;28;20070;-82
2024/02/19 11:48:55;;;;;;;15.98;5.72;;;;;;;;;;5084008;28;20067;-80
2024/02/19 11:51:22;;;;;;;13.60;5.30;;;;;;;;;;5074116;28;20055;-82
2024/02/19 11:53:48;;;;;;;15.95;6.07;;;;;;;;;;5086937;28;20101;-83
2024/02/19 11:56:18;;;;;;;16.92;6.10;;;;;;;;;;5082094;28;20113;-84
2024/02/19 11:58:47;;;;;;;14.43;5.72;;;;;;;;;;5089274;28;20047;-84
2024/02/19 12:01:17;;;;;;;18.33;6.40;;;;;;;;;;5085338;28;20076;-84
2024/02/19 12:03:44;;;;;;;13.50;5.72;;;;;;;;;;5082686;28;20083;-84
2024/02/19 12:06:10;;;;;;;15.60;6.13;;;;;;;;;;5064590;28;20131;-79
2024/02/19 12:08:39;;;;;;;15.30;6.15;;;;;;;;;;5064310;28;20094;-79
2024/02/19 12:11:06;;;;;;;16.88;6.35;;;;;;;;;;5062124;28;20098;-80
2024/02/19 12:13:35;;;;;;;13.43;5.80;;;;;;;;;;5062543;28;20608;-81
2024/02/19 12:16:02;;;;;;;12.88;6.00;;;;;;;;;;5079130;28;20044;-82
2024/02/19 12:18:29;;;;;;;15.07;6.10;;;;;;;;;;5074931;28;20052;-82
2024/02/19 12:20:55;;;;;;;14.20;5.85;;;;;;;;;;5084220;28;20032;-80
2024/02/19 12:23:22;;;;;;;16.98;6.03;;;;;;;;;;5070272;28;20052;-82
2024/02/19 12:25:48;;;;;;;18.38;6.03;;;;;;;;;;5054088;28;20056;-82
2024/02/19 12:28:15;;;;;;;13.32;5.60;;;;;;;;;;5057485;28;20066;-83
2024/02/19 12:30:41;;;;;;;14.52;5.28;;;;;;;;;;5085262;28;20056;-84
2024/02/19 12:33:08;;;;;;;11.30;5.22;;;;;;;;;;5071764;28;20048;-85
2024/02/19 12:35:34;;;;;;;15.30;6.32;;;;;;;;;;5083102;28;20049;-84
2024/02/19 12:38:04;;;;;;;15.48;5.90;;;;;;;;;;5081672;28;20044;-82
2024/02/19 12:40:30;;;;;;;12.85;5.75;;;;;;;;;;5078905;28;20125;-83
2024/02/19 12:42:57;;;;;;;15.90;5.82;;;;;;;;;;5081832;28;21012;-81
2024/02/19 12:45:23;;;;;;;14.60;5.57;;;;;;;;;;5076303;28;20139;-82
2024/02/19 12:47:51;;;;;;;20.75;6.20;;;;;;;;;;5077642;28;20530;-84
2024/02/19 12:50:19;;;;;;;17.85;5.53;;;;;;;;;;5064170;28;20066;-84
2024/02/19 12:52:46;;;;;;;18.70;6.13;;;;;;;;;;5090215;28;20052;-82
2024/02/19 12:55:13;;;;;;;12.73;5.65;;;;;;;;;;5058641;28;20049;-82
2024/02/19 12:57:46;;;;;;;18.27;5.90;;;;;;;;;;5083100;28;20468;-85
2024/02/19 13:00:12;;;;;;;13.88;5.30;;;;;;;;;;5054362;28;20048;-83
2024/02/19 13:02:39;;;;;;;16.45;5.70;;;;;;;;;;5067845;28;20052;-84
2024/02/19 13:05:07;;;;;;;17.00;6.40;;;;;;;;;;5073854;28;20048;-81
2024/02/19 13:07:34;;;;;;;12.63;5.90;;;;;;;;;;5052994;28;20040;-84
2024/02/19 13:10:01;;;;;;;18.25;6.60;;;;;;;;;;5090408;28;20082;-82
2024/02/19 13:12:27;;;;;;;15.88;7.78;;;;;;;;;;5078132;28;20044;-82
2024/02/19 13:14:56;;;;;;;15.85;7.03;;;;;;;;;;5079052;28;20040;-84
2024/02/19 13:17:22;;;;;;;15.70;7.60;;;;;;;;;;5083709;28;20040;-83
2024/02/19 13:20:01;;;;;;;18.15;7.97;;;;;;;;;;5078409;28;20063;-83
2024/02/19 13:22:28;;;;;;;24.83;10.05;;;;;;;;;;5068587;28;20405;-82
2024/02/19 13:24:54;;;;;;;18.60;8.50;;;;;;;;;;5077686;28;20056;-84
2024/02/19 13:27:21;;;;;;;21.77;9.98;;;;;;;;;;5065718;28;20056;-78
2024/02/19 13:29:48;;;;;;;22.10;10.57;;;;;;;;;;5059007;28;20045;-78
2024/02/19 13:32:14;;;;;;;22.88;11.65;;;;;;;;;;5052067;28;20037;-77
2024/02/19 13:34:41;;;;;;;20.20;11.63;;;;;;;;;;5096003;28;20516;-77
2024/02/19 13:37:07;;;;;;;27.80;17.23;;;;;;;;;;5063393;28;20040;-77
2024/02/19 13:39:34;;;;;;;28.75;19.25;;;;;;;;;;5083299;28;20084;-77
2024/02/19 13:42:00;;;;;;;34.20;20.08;;;;;;;;;;5059235;28;20048;-77
2024/02/19 13:44:27;;;;;;;31.77;18.38;;;;;;;;;;5084524;28;20070;-77
2024/02/19 13:46:53;;;;;;;33.70;20.33;;;;;;;;;;5067572;28;20514;-78
2024/02/19 13:49:19;;;;;;;30.20;18.90;;;;;;;;;;5086771;28;20044;-77
2024/02/19 13:51:47;;;;;;;29.30;18.38;;;;;;;;;;5077916;28;20119;-77
2024/02/19 13:54:14;;;;;;;27.05;16.88;;;;;;;;;;5065172;28;20071;-78
2024/02/19 13:56:40;;;;;;;26.15;15.45;;;;;;;;;;5072558;28;20113;-77
2024/02/19 13:59:10;;;;;;;28.40;15.07;;;;;;;;;;5077627;28;20080;-77
2024/02/19 14:01:36;;;;;;;26.83;15.65;;;;;;;;;;5078417;28;20055;-77
2024/02/19 14:04:07;;;;;;;26.70;15.05;;;;;;;;;;5072201;28;20511;-80
2024/02/19 14:06:34;;;;;;;23.92;14.43;;;;;;;;;;5062590;28;20430;-78
2024/02/19 14:09:00;;;;;;;28.02;14.55;;;;;;;;;;5071414;28;20044;-77
2024/02/19 14:11:27;;;;;;;25.02;14.32;;;;;;;;;;5070246;28;20048;-78
2024/02/19 14:13:53;;;;;;;29.92;15.68;;;;;;;;;;5065793;28;20508;-78
2024/02/19 14:16:28;;;;;;;23.88;14.30;;;;;;;;;;5082125;28;20055;-78
2024/02/19 14:18:55;;;;;;;24.77;14.73;;;;;;;;;;5085638;28;20071;-79
2024/02/19 14:21:21;;;;;;;27.85;14.65;;;;;;;;;;5082433;28;20663;-79
2024/02/19 14:23:49;;;;;;;27.70;10.95;;;;;;;;;;5070599;28;20052;-79
2024/02/19 14:26:15;;;;;;;17.80;9.70;;;;;;;;;;5072812;28;20040;-80
2024/02/19 14:28:42;;;;;;;17.92;8.35;;;;;;;;;;5083004;28;20048;-79